createdAt,value
2019-01-13T00:00:28.077Z,3.63
2019-01-13T00:02:56.596Z,2.50
2019-01-13T00:05:25.062Z,3.83
2019-01-13T00:07:53.726Z,4.97
2019-01-13T00:10:22.198Z,5.60
2019-01-13T00:12:50.883Z,5.27
2019-01-13T00:15:19.406Z,4.70
2019-01-13T00:17:47.919Z,4.30
2019-01-13T00:20:16.528Z,4.87
2019-01-13T00:22:45.123Z,5.50
2019-01-13T00:25:13.654Z,3.20
2019-01-13T00:27:42.275Z,5.27
2019-01-13T00:30:19.083Z,5.00
2019-01-13T00:32:44.420Z,6.63
2019-01-13T00:35:13.014Z,5.30
2019-01-13T00:37:41.607Z,4.00
2019-01-13T00:40:15.608Z,5.90
2019-01-13T00:42:44.221Z,5.40
2019-01-13T00:45:15.947Z,6.77
2019-01-13T00:47:44.407Z,5.17
2019-01-13T00:50:15.553Z,3.17
2019-01-13T00:52:44.139Z,5.90
2019-01-13T00:55:16.712Z,5.07
2019-01-13T00:57:45.173Z,3.90
2019-01-13T01:00:17.182Z,2.80
2019-01-13T01:02:45.967Z,4.23
2019-01-13T01:05:15.168Z,3.17
2019-01-13T01:07:43.986Z,3.10
2019-01-13T01:10:16.192Z,4.70
2019-01-13T01:12:44.891Z,3.20
2019-01-13T01:15:14.643Z,4.90
2019-01-13T01:17:43.171Z,2.87
2019-01-13T01:20:16.274Z,3.97
2019-01-13T01:22:45.134Z,5.43
2019-01-13T01:25:16.338Z,4.50
2019-01-13T01:27:45.133Z,4.50
2019-01-13T01:30:19.515Z,5.20
2019-01-13T01:32:48.233Z,5.30
2019-01-13T01:35:17.538Z,5.60
2019-01-13T01:37:47.116Z,5.20
2019-01-13T01:40:17.536Z,2.27
2019-01-13T01:42:46.230Z,4.50
2019-01-13T01:45:16.772Z,4.43
2019-01-13T01:47:46.350Z,4.37
2019-01-13T01:50:15.742Z,4.33
2019-01-13T01:52:44.692Z,3.77
2019-01-13T01:55:15.595Z,6.00
2019-01-13T01:57:44.603Z,6.17
2019-01-13T02:00:21.332Z,3.90
2019-01-13T02:02:49.875Z,3.47
2019-01-13T02:05:19.417Z,5.17
2019-01-13T02:07:48.121Z,5.20
2019-01-13T02:10:19.624Z,4.87
2019-01-13T02:12:48.878Z,3.70
2019-01-13T02:15:25.554Z,2.93
2019-01-13T02:17:54.240Z,4.40
2019-01-13T02:20:23.136Z,4.30
2019-01-13T02:22:53.695Z,4.67
2019-01-13T02:25:24.577Z,5.03
2019-01-13T02:27:53.051Z,4.43
2019-01-13T02:30:23.945Z,4.97
2019-01-13T02:32:52.779Z,3.97
2019-01-13T02:35:21.425Z,3.53
2019-01-13T02:37:49.956Z,4.13
2019-01-13T02:40:20.900Z,2.70
2019-01-13T02:42:49.733Z,4.33
2019-01-13T02:45:23.694Z,3.20
2019-01-13T02:47:52.381Z,5.30
2019-01-13T02:50:21.880Z,4.43
2019-01-13T02:52:50.489Z,4.93
2019-01-13T02:55:18.961Z,5.70
2019-01-13T02:57:47.491Z,5.80
2019-01-13T03:00:24.279Z,4.07
2019-01-13T03:02:52.974Z,4.87
2019-01-13T03:05:21.693Z,3.80
2019-01-13T03:07:50.383Z,5.53
2019-01-13T03:10:21.284Z,4.73
2019-01-13T03:12:50.192Z,6.17
2019-01-13T03:15:20.853Z,4.40
2019-01-13T03:17:49.878Z,4.83
2019-01-13T03:20:18.513Z,4.37
2019-01-13T03:22:47.179Z,5.10
2019-01-13T03:25:18.298Z,5.03
2019-01-13T03:27:46.761Z,5.73
2019-01-13T03:30:20.180Z,6.07
2019-01-13T03:32:49.138Z,6.13
2019-01-13T03:35:18.664Z,5.70
2019-01-13T03:37:48.561Z,5.97
2019-01-13T03:40:19.369Z,5.10
2019-01-13T03:42:48.004Z,4.70
2019-01-13T03:45:16.715Z,3.40
2019-01-13T03:47:45.183Z,4.23
2019-01-13T03:50:16.397Z,2.87
2019-01-13T03:52:52.736Z,5.00
2019-01-13T03:55:20.329Z,3.53
2019-01-13T03:57:48.940Z,3.97
2019-01-13T04:00:22.650Z,1.97
2019-01-13T04:02:53.522Z,2.33
2019-01-13T04:05:22.191Z,4.10
2019-01-13T04:07:50.798Z,2.23
2019-01-13T04:10:19.400Z,3.37
2019-01-13T04:12:48.022Z,3.53
2019-01-13T04:15:28.628Z,3.00
2019-01-13T04:17:57.520Z,2.40
2019-01-13T04:20:26.061Z,1.37
2019-01-13T04:22:54.606Z,2.63
2019-01-13T04:25:23.087Z,2.07
2019-01-13T04:27:51.598Z,2.07
2019-01-13T04:30:20.157Z,2.97
2019-01-13T04:32:48.615Z,1.33
2019-01-13T04:35:17.081Z,2.30
2019-01-13T04:37:45.699Z,3.20
2019-01-13T04:40:14.525Z,1.27
2019-01-13T04:42:43.178Z,1.60
2019-01-13T04:45:13.041Z,2.60
2019-01-13T04:47:41.510Z,2.07
2019-01-13T04:50:14.831Z,1.63
2019-01-13T04:52:43.410Z,2.80
2019-01-13T04:55:13.541Z,1.80
2019-01-13T04:57:41.997Z,2.93
2019-01-13T05:00:19.267Z,3.07
2019-01-13T05:02:47.928Z,2.20
2019-01-13T05:05:16.636Z,2.97
2019-01-13T05:07:45.216Z,3.27
2019-01-13T05:10:16.575Z,3.53
2019-01-13T05:12:45.270Z,3.27
2019-01-13T05:15:14.119Z,1.60
2019-01-13T05:17:42.617Z,1.40
2019-01-13T05:20:16.392Z,2.23
2019-01-13T05:22:45.074Z,2.80
2019-01-13T05:25:13.972Z,2.60
2019-01-13T05:27:42.578Z,2.03
2019-01-13T05:30:16.880Z,1.83
2019-01-13T05:32:45.589Z,2.00
2019-01-13T05:35:14.306Z,1.97
2019-01-13T05:37:43.698Z,2.30
2019-01-13T05:40:17.352Z,1.83
2019-01-13T05:42:45.881Z,1.80
2019-01-13T05:45:16.843Z,1.87
2019-01-13T05:47:45.553Z,1.87
2019-01-13T05:50:15.876Z,2.30
2019-01-13T05:52:46.325Z,2.37
2019-01-13T05:55:14.863Z,2.07
2019-01-13T05:57:43.393Z,2.30
2019-01-13T06:00:20.496Z,3.07
2019-01-13T06:02:48.948Z,2.03
2019-01-13T06:05:17.436Z,1.00
2019-01-13T06:07:45.936Z,1.67
2019-01-13T06:10:16.539Z,2.10
2019-01-13T06:12:45.148Z,1.30
2019-01-13T06:15:16.745Z,1.13
2019-01-13T06:17:45.220Z,2.70
2019-01-13T06:20:16.321Z,1.50
2019-01-13T06:22:45.815Z,1.00
2019-01-13T06:25:14.866Z,1.10
2019-01-13T06:27:43.411Z,1.23
2019-01-13T06:30:14.680Z,1.53
2019-01-13T06:32:43.142Z,2.40
2019-01-13T06:35:11.779Z,1.90
2019-01-13T06:37:40.427Z,2.40
2019-01-13T06:40:12.128Z,1.83
2019-01-13T06:42:40.732Z,1.17
2019-01-13T06:45:12.470Z,3.03
2019-01-13T06:47:42.031Z,2.10
2019-01-13T06:50:12.965Z,1.20
2019-01-13T06:52:41.618Z,0.90
2019-01-13T06:55:10.815Z,2.23
2019-01-13T06:57:39.352Z,0.87
2019-01-13T07:00:23.568Z,1.20
2019-01-13T07:02:52.085Z,0.90
2019-01-13T07:05:20.690Z,0.97
2019-01-13T07:07:49.366Z,1.17
2019-01-13T07:10:18.032Z,1.00
2019-01-13T07:12:46.478Z,1.40
2019-01-13T07:15:20.074Z,1.33
2019-01-13T07:17:48.600Z,2.40
2019-01-13T07:20:18.820Z,1.97
2019-01-13T07:22:47.532Z,1.57
2019-01-13T07:25:16.161Z,2.33
2019-01-13T07:27:44.698Z,2.43
2019-01-13T07:30:15.873Z,2.30
2019-01-13T07:32:44.441Z,2.23
2019-01-13T07:35:13.090Z,1.77
2019-01-13T07:37:41.592Z,2.20
2019-01-13T07:40:15.324Z,2.10
2019-01-13T07:42:43.900Z,2.17
2019-01-13T07:45:15.030Z,2.07
2019-01-13T07:47:43.567Z,2.63
2019-01-13T07:50:14.483Z,2.80
2019-01-13T07:52:43.135Z,2.83
2019-01-13T07:55:15.575Z,2.63
2019-01-13T07:57:44.372Z,2.27
2019-01-13T08:00:21.180Z,2.87
2019-01-13T08:02:50.568Z,2.70
2019-01-13T08:05:19.166Z,3.37
2019-01-13T08:07:49.387Z,2.83
2019-01-13T08:10:17.841Z,2.33
2019-01-13T08:12:46.537Z,2.60
2019-01-13T08:15:20.397Z,2.77
2019-01-13T08:17:49.105Z,2.97
2019-01-13T08:20:23.277Z,3.00
2019-01-13T08:22:52.160Z,2.63
2019-01-13T08:25:20.859Z,3.67
2019-01-13T08:27:49.321Z,2.40
2019-01-13T08:30:19.889Z,2.90
2019-01-13T08:32:48.653Z,2.90
2019-01-13T08:35:17.470Z,2.70
2019-01-13T08:37:46.140Z,3.10
2019-01-13T08:40:18.222Z,2.23
2019-01-13T08:42:46.948Z,1.70
2019-01-13T08:45:16.043Z,3.20
2019-01-13T08:47:44.703Z,1.73
2019-01-13T08:50:16.009Z,3.23
2019-01-13T08:52:44.556Z,3.10
2019-01-13T08:55:14.155Z,1.83
2019-01-13T08:57:42.736Z,1.40
2019-01-13T09:00:20.078Z,2.67
2019-01-13T09:02:48.579Z,2.27
2019-01-13T09:05:17.327Z,1.67
2019-01-13T09:07:45.988Z,2.67
2019-01-13T09:10:16.802Z,1.90
2019-01-13T09:12:45.418Z,1.83
2019-01-13T09:15:16.775Z,3.50
2019-01-13T09:17:45.588Z,3.40
2019-01-13T09:20:16.891Z,2.80
2019-01-13T09:22:45.685Z,3.30
2019-01-13T09:25:14.225Z,3.20
2019-01-13T09:27:42.756Z,2.33
2019-01-13T09:30:19.857Z,1.17
2019-01-13T09:32:48.404Z,1.80
2019-01-13T09:35:17.161Z,2.83
2019-01-13T09:37:45.797Z,1.93
2019-01-13T09:40:17.775Z,2.30
2019-01-13T09:42:46.374Z,1.97
2019-01-13T09:45:15.073Z,3.40
2019-01-13T09:47:43.537Z,2.13
2019-01-13T09:50:17.540Z,1.70
2019-01-13T09:52:46.238Z,1.70
2019-01-13T09:55:17.201Z,1.70
2019-01-13T09:57:46.923Z,1.87
2019-01-13T10:00:21.640Z,1.50
2019-01-13T10:02:50.174Z,1.70
2019-01-13T10:05:18.630Z,1.60
2019-01-13T10:07:48.163Z,1.80
2019-01-13T10:10:16.753Z,2.13
2019-01-13T10:12:45.448Z,2.40
2019-01-13T10:15:22.536Z,2.40
2019-01-13T10:17:51.059Z,1.53
2019-01-13T10:20:19.882Z,2.23
2019-01-13T10:22:49.212Z,2.57
2019-01-13T10:25:18.206Z,2.67
2019-01-13T10:27:46.816Z,1.83
2019-01-13T10:30:25.074Z,2.17
2019-01-13T10:32:55.110Z,2.23
2019-01-13T10:35:24.360Z,2.23
2019-01-13T10:37:53.583Z,2.53
2019-01-13T10:40:41.469Z,2.33
2019-01-13T10:43:10.286Z,2.90
2019-01-13T10:45:38.829Z,2.33
2019-01-13T10:48:07.545Z,1.73
2019-01-13T10:50:36.139Z,1.90
2019-01-13T10:53:05.181Z,2.60
2019-01-13T10:55:33.714Z,1.67
2019-01-13T10:58:02.368Z,3.07
2019-01-13T11:00:32.877Z,2.90
2019-01-13T11:03:02.380Z,2.37
2019-01-13T11:05:33.323Z,1.90
2019-01-13T11:08:02.016Z,2.10
2019-01-13T11:10:31.536Z,2.10
2019-01-13T11:13:00.249Z,1.97
2019-01-13T11:15:28.715Z,2.20
2019-01-13T11:17:58.180Z,2.30
2019-01-13T11:20:32.369Z,1.73
2019-01-13T11:23:01.196Z,2.23
2019-01-13T11:25:29.721Z,2.47
2019-01-13T11:27:58.339Z,2.33
2019-01-13T11:30:27.648Z,2.70
2019-01-13T11:32:56.178Z,2.70
2019-01-13T11:35:24.790Z,2.53
2019-01-13T11:37:53.352Z,1.90
2019-01-13T11:40:24.321Z,2.47
2019-01-13T11:42:54.596Z,2.60
2019-01-13T11:45:23.490Z,2.77
2019-01-13T11:47:52.102Z,3.20
2019-01-13T11:50:23.172Z,1.60
2019-01-13T11:52:51.837Z,2.13
2019-01-13T11:55:20.798Z,2.57
2019-01-13T11:57:49.478Z,2.80
2019-01-13T12:00:20.751Z,1.53
2019-01-13T12:02:49.396Z,2.90
2019-01-13T12:05:18.241Z,3.10
2019-01-13T12:07:48.820Z,3.37
2019-01-13T12:10:21.398Z,2.70
2019-01-13T12:12:50.876Z,2.80
2019-01-13T12:15:21.298Z,2.77
2019-01-13T12:17:50.757Z,2.60
2019-01-13T12:20:24.514Z,2.00
2019-01-13T12:22:53.110Z,2.53
2019-01-13T12:25:23.145Z,2.10
2019-01-13T12:27:52.255Z,2.00
2019-01-13T12:30:31.564Z,1.67
2019-01-13T12:33:00.828Z,1.87
2019-01-13T12:35:29.623Z,2.43
2019-01-13T12:37:58.297Z,2.67
2019-01-13T12:40:29.331Z,2.93
2019-01-13T12:42:57.926Z,2.27
2019-01-13T12:45:26.725Z,2.17
2019-01-13T12:47:55.578Z,2.50
2019-01-13T12:50:27.136Z,2.87
2019-01-13T12:52:55.606Z,1.83
2019-01-13T12:55:24.295Z,2.50
2019-01-13T12:57:53.042Z,3.00
2019-01-13T13:00:22.048Z,2.00
2019-01-13T13:02:51.675Z,1.90
2019-01-13T13:05:30.418Z,2.10
2019-01-13T13:07:59.220Z,2.00
2019-01-13T13:10:30.723Z,2.40
2019-01-13T13:12:59.352Z,2.40
2019-01-13T13:15:28.181Z,2.50
2019-01-13T13:17:57.502Z,2.57
2019-01-13T13:20:26.178Z,2.27
2019-01-13T13:22:55.305Z,2.10
2019-01-13T13:25:23.931Z,1.90
2019-01-13T13:27:52.601Z,2.07
2019-01-13T13:30:26.493Z,2.73
2019-01-13T13:32:55.348Z,2.10
2019-01-13T13:35:24.075Z,2.17
2019-01-13T13:37:52.927Z,2.17
2019-01-13T13:40:26.716Z,2.00
2019-01-13T13:42:55.286Z,1.57
2019-01-13T13:45:23.933Z,1.50
2019-01-13T13:47:52.662Z,2.30
2019-01-13T13:50:23.407Z,2.10
2019-01-13T13:52:52.273Z,1.40
2019-01-13T13:55:21.333Z,1.73
2019-01-13T13:57:50.228Z,2.30
2019-01-13T14:00:31.260Z,2.37
2019-01-13T14:02:59.862Z,2.50
2019-01-13T14:05:28.458Z,2.70
2019-01-13T14:07:57.006Z,1.47
2019-01-13T14:10:28.520Z,2.40
2019-01-13T14:12:57.038Z,1.47
2019-01-13T14:15:25.565Z,1.70
2019-01-13T14:17:54.999Z,2.63
2019-01-13T14:20:23.467Z,3.87
2019-01-13T14:22:51.986Z,5.17
2019-01-13T14:25:20.582Z,4.27
2019-01-13T14:27:49.278Z,4.37
2019-01-13T14:30:26.134Z,5.33
2019-01-13T14:32:54.730Z,5.53
2019-01-13T14:35:24.603Z,5.87
2019-01-13T14:37:53.267Z,5.70
2019-01-13T14:40:23.855Z,6.23
2019-01-13T14:42:52.506Z,6.13
2019-01-13T14:45:25.515Z,6.30
2019-01-13T14:47:54.346Z,5.97
2019-01-13T14:50:26.956Z,6.23
2019-01-13T14:52:55.476Z,5.60
2019-01-13T14:55:24.029Z,5.53
2019-01-13T14:57:52.684Z,5.57
2019-01-13T15:00:26.484Z,5.33
2019-01-13T15:02:55.081Z,4.77
2019-01-13T15:05:23.538Z,4.63
2019-01-13T15:07:52.087Z,4.40
2019-01-13T15:10:23.658Z,4.23
2019-01-13T15:12:52.661Z,4.70
2019-01-13T15:15:21.256Z,4.70
2019-01-13T15:17:49.784Z,4.80
2019-01-13T15:20:23.124Z,5.80
2019-01-13T15:25:26.826Z,5.67
2019-01-13T15:27:55.349Z,5.77
2019-01-13T15:31:49.254Z,5.03
2019-01-13T15:36:20.648Z,5.00
2019-01-13T15:38:49.160Z,4.53
2019-01-13T15:41:17.616Z,6.10
2019-01-13T15:43:48.552Z,6.57
2019-01-13T15:46:18.080Z,7.77
2019-01-13T15:48:46.695Z,7.10
2019-01-13T15:51:15.270Z,7.40
2019-01-13T15:53:43.827Z,7.10
2019-01-13T15:56:12.316Z,6.97
2019-01-13T15:58:41.146Z,7.13
2019-01-13T16:01:09.731Z,8.70
2019-01-13T16:03:38.204Z,6.77
2019-01-13T16:06:06.741Z,7.50
2019-01-13T16:08:35.323Z,7.57
2019-01-13T16:11:03.785Z,12.07
2019-01-13T16:13:32.267Z,12.33
2019-01-13T16:16:00.802Z,12.13
2019-01-13T16:18:29.421Z,12.77
2019-01-13T16:20:57.891Z,12.63
2019-01-13T16:23:26.599Z,7.93
2019-01-13T16:25:55.098Z,9.17
2019-01-13T16:28:23.640Z,6.93
2019-01-13T16:30:52.241Z,5.90
2019-01-13T16:33:20.703Z,5.77
2019-01-13T16:35:49.158Z,6.03
2019-01-13T16:38:17.725Z,6.43
2019-01-13T16:40:46.212Z,5.47
2019-01-13T16:43:14.760Z,5.53
2019-01-13T16:45:43.355Z,8.13
2019-01-13T16:48:11.882Z,5.10
2019-01-13T16:50:40.396Z,5.13
2019-01-13T16:53:08.921Z,5.20
2019-01-13T16:55:37.423Z,6.47
2019-01-13T16:58:06.329Z,4.33
2019-01-13T17:00:35.148Z,5.63
2019-01-13T17:03:03.853Z,4.50
2019-01-13T17:05:32.447Z,4.60
2019-01-13T17:08:21.755Z,5.37
2019-01-13T17:10:50.361Z,5.43
2019-01-13T17:13:18.941Z,5.20
2019-01-13T17:15:47.556Z,5.53
2019-01-13T17:18:16.031Z,5.00
2019-01-13T17:20:44.648Z,5.40
2019-01-13T17:23:13.320Z,6.00
2019-01-13T17:25:42.813Z,6.20
2019-01-13T17:28:11.349Z,5.80
2019-01-13T17:30:39.948Z,4.80
2019-01-13T17:33:08.410Z,4.27
2019-01-13T17:35:37.041Z,4.90
2019-01-13T17:38:08.699Z,4.37
2019-01-13T17:40:37.324Z,5.00
2019-01-13T17:43:05.965Z,5.03
2019-01-13T17:45:34.605Z,5.10
2019-01-13T17:48:03.149Z,4.90
2019-01-13T17:50:31.776Z,5.50
2019-01-13T17:53:00.363Z,5.03
2019-01-13T17:55:30.058Z,4.63
2019-01-13T17:57:58.586Z,4.70
2019-01-13T18:00:48.573Z,4.63
2019-01-13T18:03:22.905Z,3.97
2019-01-13T18:05:51.369Z,5.00
2019-01-13T18:08:19.998Z,4.73
2019-01-13T18:10:48.460Z,4.57
2019-01-13T18:13:16.998Z,4.97
2019-01-13T18:15:46.489Z,4.87
2019-01-13T18:18:14.975Z,4.73
2019-01-13T18:20:43.469Z,4.97
2019-01-13T18:23:11.992Z,5.20
2019-01-13T18:25:40.530Z,4.63
2019-01-13T18:28:10.127Z,4.80
2019-01-13T18:30:38.725Z,4.83
2019-01-13T18:33:07.255Z,5.23
2019-01-13T18:35:35.744Z,4.97
2019-01-13T18:38:04.353Z,5.33
2019-01-13T18:40:32.828Z,4.80
2019-01-13T18:43:01.312Z,5.43
2019-01-13T18:45:29.902Z,5.57
2019-01-13T18:47:58.366Z,5.40
2019-01-13T18:50:27.054Z,5.10
2019-01-13T18:53:04.500Z,5.70
2019-01-13T18:55:33.056Z,6.20
2019-01-13T18:58:01.595Z,5.27
2019-01-13T19:00:30.273Z,6.83
2019-01-13T19:02:58.882Z,6.93
2019-01-13T19:05:28.712Z,7.00
2019-01-13T19:07:57.318Z,6.07
2019-01-13T19:10:50.967Z,5.73
2019-01-13T19:13:31.551Z,6.17
2019-01-13T19:16:00.019Z,5.73
2019-01-13T19:18:28.512Z,5.27
2019-01-13T19:20:57.711Z,5.57
2019-01-13T19:23:27.786Z,6.40
2019-01-13T19:25:56.266Z,5.30
2019-01-13T19:28:24.868Z,3.13
2019-01-13T19:30:53.474Z,2.70
2019-01-13T19:33:22.025Z,3.37
2019-01-13T19:35:50.602Z,2.80
2019-01-13T19:38:21.161Z,2.43
2019-01-13T19:40:50.757Z,2.90
2019-01-13T19:43:19.274Z,3.27
2019-01-13T19:45:47.793Z,2.47
2019-01-13T19:48:16.284Z,1.33
2019-01-13T19:50:45.107Z,2.57
2019-01-13T19:53:13.616Z,2.07
2019-01-13T19:55:42.217Z,2.50
2019-01-13T19:58:10.742Z,2.40
2019-01-13T20:00:39.451Z,2.60
2019-01-13T20:03:08.252Z,2.20
2019-01-13T20:05:36.943Z,2.10
2019-01-13T20:08:05.700Z,2.73
2019-01-13T20:10:34.478Z,1.90
2019-01-13T20:13:04.172Z,2.13
2019-01-13T20:15:32.642Z,2.40
2019-01-13T20:18:01.290Z,2.10
2019-01-13T20:20:29.964Z,2.10
2019-01-13T20:22:58.568Z,2.30
2019-01-13T20:25:27.042Z,2.50
2019-01-13T20:27:55.593Z,2.50
2019-01-13T20:30:33.933Z,2.53
2019-01-13T20:33:03.988Z,1.80
2019-01-13T20:35:32.606Z,2.10
2019-01-13T20:38:01.151Z,1.90
2019-01-13T20:40:30.267Z,1.80
2019-01-13T20:43:00.285Z,2.20
2019-01-13T20:45:34.568Z,2.43
2019-01-13T20:48:03.137Z,2.80
2019-01-13T20:50:31.653Z,1.80
2019-01-13T20:53:01.265Z,1.83
2019-01-13T20:55:29.785Z,1.50
2019-01-13T20:57:58.301Z,1.40
2019-01-13T21:00:30.152Z,1.40
2019-01-13T21:02:58.697Z,3.17
2019-01-13T21:05:27.393Z,1.20
2019-01-13T21:07:56.298Z,0.70
2019-01-13T21:10:25.028Z,0.00
2019-01-13T21:12:54.853Z,0.00
2019-01-13T21:15:30.909Z,0.00
2019-01-13T21:17:59.398Z,0.00
2019-01-13T21:20:27.936Z,0.00
2019-01-13T21:22:56.516Z,0.00
2019-01-13T21:25:25.046Z,0.00
2019-01-13T21:27:59.811Z,0.20
2019-01-13T21:30:33.385Z,0.00
2019-01-13T21:33:02.269Z,0.00
2019-01-13T21:35:34.018Z,0.00
2019-01-13T21:38:02.124Z,0.00
2019-01-13T21:40:31.681Z,0.00
2019-01-13T21:43:00.142Z,0.00
2019-01-13T21:45:28.728Z,0.00
2019-01-13T21:47:57.204Z,0.00
2019-01-13T21:50:26.506Z,0.00
2019-01-13T21:52:55.103Z,0.00
2019-01-13T21:55:23.806Z,0.00
2019-01-13T21:57:52.252Z,0.00
2019-01-13T22:00:24.477Z,0.00
2019-01-13T22:02:53.335Z,0.00
2019-01-13T22:05:23.646Z,0.00
2019-01-13T22:07:52.427Z,0.00
2019-01-13T22:10:24.854Z,0.00
2019-01-13T22:12:54.023Z,0.00
2019-01-13T22:15:23.298Z,0.00
2019-01-13T22:17:51.904Z,0.00
2019-01-13T22:20:22.283Z,0.00
2019-01-13T22:22:53.370Z,0.00
2019-01-13T22:25:21.988Z,0.00
2019-01-13T22:27:50.539Z,0.00
2019-01-13T22:30:20.748Z,0.00
2019-01-13T22:32:49.293Z,0.00
2019-01-13T22:35:17.894Z,0.00
2019-01-13T22:37:47.442Z,0.00
2019-01-13T22:40:17.560Z,0.00
2019-01-13T22:42:46.669Z,0.00
2019-01-13T22:45:17.895Z,0.00
2019-01-13T22:47:46.559Z,0.00
2019-01-13T22:50:16.666Z,0.00
2019-01-13T22:52:45.334Z,0.00
2019-01-13T22:55:14.033Z,0.00
2019-01-13T22:57:43.598Z,0.00
2019-01-13T23:00:50.198Z,0.00
2019-01-13T23:03:19.697Z,0.00
2019-01-13T23:05:55.457Z,0.00
2019-01-13T23:08:18.531Z,0.00
2019-01-13T23:10:46.997Z,0.90
2019-01-13T23:13:15.488Z,0.73
2019-01-13T23:15:44.011Z,0.93
2019-01-13T23:18:12.537Z,1.17
2019-01-13T23:20:41.081Z,1.00
2019-01-13T23:23:09.605Z,1.27
2019-01-13T23:25:38.147Z,0.90
2019-01-13T23:28:06.608Z,0.80
2019-01-13T23:30:35.775Z,0.73
2019-01-13T23:33:04.483Z,0.40
2019-01-13T23:35:32.954Z,1.20
2019-01-13T23:38:01.572Z,0.83
2019-01-13T23:40:30.194Z,0.90
2019-01-13T23:42:58.675Z,0.63
2019-01-13T23:45:27.362Z,1.03
2019-01-13T23:47:55.827Z,0.80
2019-01-13T23:50:24.525Z,0.90
2019-01-13T23:52:53.147Z,1.43
2019-01-13T23:55:21.632Z,1.20
2019-01-13T23:57:50.115Z,0.87
